Time;durP1;ratioP1;P1;durP2;ratioP2;P2;SDS_P1;SDS_P2;PMS_P1;PMS_P2;Temp;Humidity;BMP_temperature;BMP_pressure;BME280_temperature;BME280_humidity;BME280_pressure;Samples;Min_cycle;Max_cycle;Signal;HPM_P1;HPM_P2
2022/05/23 00:02:06;;;;;;;26.65;11.02;;;;;;;9.19;83.07;100371.28;5083372;28;20656;-73
2022/05/23 00:04:32;;;;;;;20.33;11.43;;;;;;;9.16;83.14;100364.41;5065284;28;20052;-73
2022/05/23 00:06:58;;;;;;;24.13;10.98;;;;;;;9.16;83.33;100366.13;5083454;28;20027;-73
2022/05/23 00:09:25;;;;;;;21.00;10.20;;;;;;;9.14;83.51;100363.53;5083305;28;20265;-74
2022/05/23 00:11:50;;;;;;;22.80;10.05;;;;;;;9.13;83.61;100364.41;5083201;28;20337;-74
2022/05/23 00:14:16;;;;;;;26.50;10.10;;;;;;;9.08;83.66;100358.38;5083375;28;20027;-75
2022/05/23 00:16:45;;;;;;;20.65;9.60;;;;;;;9.11;83.67;100355.78;5083131;28;20031;-73
2022/05/23 00:19:12;;;;;;;16.63;9.13;;;;;;;9.11;84.10;100355.78;5064911;28;20024;-73
2022/05/23 00:21:40;;;;;;;19.55;9.65;;;;;;;9.13;84.38;100359.22;5083179;28;20026;-73
2022/05/23 00:24:07;;;;;;;15.63;8.38;;;;;;;9.14;84.65;100360.94;5064956;28;20016;-72
2022/05/23 00:26:32;;;;;;;16.65;8.95;;;;;;;9.15;84.77;100356.63;5082897;28;20031;-74
2022/05/23 00:28:58;;;;;;;16.80;9.20;;;;;;;9.13;84.77;100356.66;5083085;28;20020;-74
2022/05/23 00:31:23;;;;;;;16.60;8.88;;;;;;;9.11;85.04;100355.78;5083114;28;20035;-74
2022/05/23 00:36:34;;;;;;;19.80;9.73;;;;;;;9.08;85.11;100348.03;5083173;28;20067;-74
2022/05/23 00:39:00;;;;;;;16.40;8.93;;;;;;;9.06;85.29;100352.34;5082943;28;20020;-74
2022/05/23 00:44:19;;;;;;;21.88;8.02;;;;;;;9.07;85.60;100345.44;5083012;28;20039;-74
2022/05/23 00:46:52;;;;;;;15.63;7.25;;;;;;;9.10;85.96;100348.00;5082886;28;20032;-74
2022/05/23 00:49:20;;;;;;;16.98;8.43;;;;;;;9.11;86.38;100332.47;5084479;28;20036;-73
2022/05/23 00:51:46;;;;;;;11.63;7.60;;;;;;;9.18;86.62;100341.94;5086623;28;20043;-74
2022/05/23 00:54:12;;;;;;;15.43;8.70;;;;;;;9.18;86.49;100341.94;5086516;28;20025;-74
2022/05/23 00:56:44;;;;;;;12.10;7.38;;;;;;;9.22;86.67;100341.94;5086618;28;20024;-74
2022/05/23 00:59:13;;;;;;;20.80;9.45;;;;;;;9.21;86.62;100341.06;5086605;28;20055;-74
2022/05/23 01:01:40;;;;;;;19.90;8.60;;;;;;;9.15;86.73;100330.75;5086595;28;20091;-74
2022/05/23 01:04:06;;;;;;;19.70;9.15;;;;;;;9.11;87.06;100324.69;5068201;28;20021;-73
2022/05/23 01:06:32;;;;;;;20.55;9.95;;;;;;;8.97;87.18;100309.22;5086580;28;20035;-73
2022/05/23 01:08:57;;;;;;;19.48;9.10;;;;;;;9.07;87.33;100322.13;5086317;28;20043;-73
2022/05/23 01:11:24;;;;;;;20.85;9.48;;;;;;;9.09;87.54;100329.00;5086018;28;20024;-74
2022/05/23 01:13:53;;;;;;;17.55;8.63;;;;;;;9.09;88.06;100329.00;5086096;28;20031;-74
2022/05/23 01:16:20;;;;;;;25.17;9.80;;;;;;;9.08;88.05;100329.03;5086527;28;20154;-73
2022/05/23 01:18:45;;;;;;;23.80;10.73;;;;;;;9.04;88.09;100323.84;5086544;28;20059;-74
2022/05/23 01:21:35;;;;;;;23.73;10.82;;;;;;;9.07;88.28;100328.19;5086109;28;20024;-73
2022/05/23 01:24:12;;;;;;;19.80;12.10;;;;;;;9.06;88.36;100318.66;5086104;28;20048;-73
2022/05/23 01:26:37;;;;;;;21.63;11.40;;;;;;;9.03;88.27;100319.56;5086079;28;20041;-73
2022/05/23 01:29:10;;;;;;;23.17;12.00;;;;;;;9.04;88.71;100323.00;5068178;28;20158;-73
2022/05/23 01:31:35;;;;;;;24.27;13.30;;;;;;;9.01;88.60;100321.28;5085964;28;20077;-73
2022/05/23 01:34:00;;;;;;;27.45;12.18;;;;;;;8.93;88.63;100310.94;5085472;28;20024;-72
2022/05/23 01:36:26;;;;;;;23.10;11.27;;;;;;;8.94;88.73;100317.00;5085811;28;20052;-73
2022/05/23 01:38:51;;;;;;;22.35;11.23;;;;;;;8.97;89.09;100316.13;5085819;28;20020;-73
2022/05/23 01:41:16;;;;;;;22.85;11.63;;;;;;;8.97;89.12;100314.41;5085452;28;20045;-73
2022/05/23 01:43:42;;;;;;;25.17;11.05;;;;;;;8.95;89.23;100310.06;5085691;28;20025;-73
2022/05/23 01:46:07;;;;;;;15.80;8.98;;;;;;;8.96;89.29;100314.41;5085528;28;20017;-73
2022/05/23 01:48:32;;;;;;;18.70;8.20;;;;;;;9.02;89.54;100317.84;5085677;28;20057;-73
2022/05/23 01:50:58;;;;;;;17.83;9.18;;;;;;;9.07;89.45;100323.00;5085555;28;20020;-72
2022/05/23 01:53:23;;;;;;;17.40;9.30;;;;;;;9.13;89.77;100325.56;5085805;28;20024;-73
2022/05/23 01:55:48;;;;;;;16.67;10.02;;;;;;;9.20;90.12;100325.53;5085418;28;20488;-74
2022/05/23 01:58:14;;;;;;;17.38;7.82;;;;;;;9.26;90.11;100320.34;5085421;28;20023;-74
2022/05/23 02:03:23;;;;;;;15.95;8.85;;;;;;;9.35;90.39;100322.00;5085386;28;20093;-74
2022/05/23 02:05:49;;;;;;;20.13;9.23;;;;;;;9.45;90.28;100328.00;5085273;28;20131;-74
2022/05/23 02:08:14;;;;;;;16.33;9.13;;;;;;;9.47;90.51;100319.38;5066924;28;20025;-74
2022/05/23 02:10:39;;;;;;;14.77;9.32;;;;;;;9.49;90.43;100321.97;5085084;28;20036;-73
2022/05/23 02:13:05;;;;;;;21.90;10.38;;;;;;;9.57;90.12;100322.75;5085281;28;20025;-74
2022/05/23 02:15:32;;;;;;;17.25;9.70;;;;;;;9.60;90.30;100312.38;5085137;28;20209;-73
2022/05/23 02:18:02;;;;;;;16.08;8.88;;;;;;;9.62;90.25;100320.13;5084955;28;20078;-73
2022/05/23 02:20:28;;;;;;;13.20;9.77;;;;;;;9.58;90.22;100300.28;5084886;28;20024;-73
2022/05/23 02:22:54;;;;;;;19.15;8.82;;;;;;;9.64;90.25;100308.91;5084924;28;20031;-74
2022/05/23 02:25:19;;;;;;;20.35;9.93;;;;;;;9.62;90.28;100304.59;5085017;28;20020;-74
2022/05/23 02:27:45;;;;;;;19.88;9.20;;;;;;;9.67;90.02;100306.28;5084923;28;20428;-73
2022/05/23 02:30:11;;;;;;;14.68;8.20;;;;;;;9.67;90.06;100308.00;5084789;28;20031;-73
2022/05/23 02:32:36;;;;;;;17.20;8.23;;;;;;;9.69;89.64;100300.22;5084888;28;20025;-73
2022/05/23 02:35:02;;;;;;;19.17;9.35;;;;;;;9.67;89.69;100298.50;5084595;28;20020;-73
2022/05/23 02:37:28;;;;;;;14.07;8.48;;;;;;;9.62;89.64;100292.50;5066757;28;20074;-73
2022/05/23 02:39:53;;;;;;;17.63;8.55;;;;;;;9.67;89.85;100298.50;5084337;28;20271;-74
2022/05/23 02:42:18;;;;;;;18.63;8.02;;;;;;;9.66;89.65;100290.75;5084599;28;20120;-73
2022/05/23 02:44:46;;;;;;;18.30;7.35;;;;;;;9.67;89.42;100287.28;5084475;28;20024;-73
2022/05/23 02:47:12;;;;;;;16.88;7.30;;;;;;;9.63;89.84;100286.44;5084525;28;20020;-74
2022/05/23 02:49:37;;;;;;;14.45;8.25;;;;;;;9.62;89.55;100284.72;5084441;28;20084;-73
2022/05/23 02:52:02;;;;;;;17.05;9.43;;;;;;;9.62;89.59;100289.91;5084109;28;20032;-74
2022/05/23 02:54:28;;;;;;;15.32;8.80;;;;;;;9.61;89.46;100290.78;5084390;28;20099;-74
2022/05/23 02:56:53;;;;;;;21.45;8.20;;;;;;;9.57;89.37;100281.28;5066229;28;20028;-74
2022/05/23 02:59:19;;;;;;;15.20;7.18;;;;;;;9.59;89.41;100284.75;5084334;28;20040;-74
2022/05/23 03:04:28;;;;;;;12.48;6.20;;;;;;;9.64;89.20;100289.88;5084270;28;20054;-73
2022/05/23 03:06:53;;;;;;;12.65;6.97;;;;;;;9.62;89.20;100276.94;5084158;28;20111;-74
2022/05/23 03:09:19;;;;;;;12.88;7.80;;;;;;;9.65;89.15;100279.50;5084070;28;20048;-74
2022/05/23 03:11:44;;;;;;;11.77;6.95;;;;;;;9.65;89.27;100284.69;5065944;28;20024;-73
2022/05/23 03:14:10;;;;;;;12.57;6.63;;;;;;;9.67;88.87;100277.78;5083932;28;20054;-73
2022/05/23 03:16:35;;;;;;;13.25;7.05;;;;;;;9.73;89.03;100284.63;5084073;28;20394;-73
2022/05/23 03:19:00;;;;;;;11.43;6.55;;;;;;;9.75;88.77;100279.44;5084059;28;20014;-74
2022/05/23 03:27:00;;;;;;;11.32;6.20;;;;;;;9.82;88.31;100288.03;5083843;28;20412;-74
2022/05/23 03:29:29;;;;;;;9.82;6.32;;;;;;;9.86;87.68;100290.59;5083768;28;20059;-74
2022/05/23 03:31:55;;;;;;;15.98;6.28;;;;;;;9.79;87.77;100291.53;5083714;28;20028;-74
2022/05/23 03:34:20;;;;;;;13.02;6.65;;;;;;;9.78;87.98;100280.28;5083607;28;20023;-75
2022/05/23 03:36:46;;;;;;;11.80;5.60;;;;;;;9.89;87.54;100282.81;5083685;28;20059;-75
2022/05/23 03:39:11;;;;;;;10.20;5.53;;;;;;;9.91;87.29;100280.19;5083547;28;20016;-74
2022/05/23 03:41:38;;;;;;;7.55;5.57;;;;;;;10.01;87.18;100278.41;5061949;28;20049;-74
2022/05/23 03:44:07;;;;;;;7.97;5.15;;;;;;;10.09;86.47;100279.19;5062006;28;20053;-74
2022/05/23 03:46:33;;;;;;;11.95;6.05;;;;;;;10.10;86.11;100274.84;5063597;28;20036;-74
2022/05/23 03:48:59;;;;;;;11.57;4.85;;;;;;;10.09;85.78;100274.00;5063661;28;20021;-73
2022/05/23 03:51:24;;;;;;;14.23;5.07;;;;;;;10.12;85.19;100263.59;5063519;28;20056;-75
2022/05/23 03:53:50;;;;;;;9.18;4.65;;;;;;;10.09;85.14;100266.22;5063425;28;20413;-75
2022/05/23 03:56:15;;;;;;;11.40;5.05;;;;;;;10.12;84.67;100262.72;5063005;28;20032;-74
2022/05/23 03:58:40;;;;;;;10.32;3.95;;;;;;;10.17;84.50;100256.63;5063262;28;20033;-74
2022/05/23 04:01:12;;;;;;;8.45;4.45;;;;;;;10.22;83.83;100259.19;5063291;28;20021;-75
2022/05/23 04:03:38;;;;;;;8.75;4.28;;;;;;;10.29;83.73;100250.47;5063371;28;20032;-74
2022/05/23 04:06:04;;;;;;;7.53;3.53;;;;;;;10.53;83.63;100256.31;5063171;28;20029;-75
2022/05/23 04:08:30;;;;;;;6.07;3.40;;;;;;;11.06;83.66;100262.63;5063274;28;20073;-76
2022/05/23 04:10:56;;;;;;;5.95;2.90;;;;;;;11.51;82.50;100251.63;5063078;28;20020;-76
2022/05/23 04:13:21;;;;;;;5.00;3.08;;;;;;;11.84;81.06;100240.72;5063229;28;20037;-74
2022/05/23 04:15:47;;;;;;;4.82;3.50;;;;;;;12.25;78.66;100250.50;5062996;28;20025;-74
2022/05/23 04:18:12;;;;;;;7.65;2.88;;;;;;;12.59;76.62;100248.97;5061839;28;20415;-69
2022/05/23 04:20:37;;;;;;;9.23;3.50;;;;;;;12.82;73.22;100245.06;5063312;28;20039;-73
2022/05/23 04:23:03;;;;;;;6.07;3.17;;;;;;;12.82;72.83;100250.28;5061851;28;20021;-75
2022/05/23 04:25:29;;;;;;;6.32;3.17;;;;;;;12.83;72.50;100249.38;5066715;28;20049;-74
2022/05/23 04:27:55;;;;;;;6.75;3.85;;;;;;;12.80;72.73;100239.88;5067011;28;20093;-74
2022/05/23 04:30:20;;;;;;;5.32;2.63;;;;;;;12.72;72.38;100233.97;5065929;28;20048;-73
2022/05/23 04:35:30;;;;;;;8.65;3.35;;;;;;;13.15;70.79;100253.06;5067189;28;20248;-77
2022/05/23 04:37:56;;;;;;;6.88;3.40;;;;;;;13.37;70.62;100248.22;5065691;28;20028;-76
2022/05/23 04:40:25;;;;;;;4.68;3.47;;;;;;;13.63;70.26;100244.19;5071803;28;20036;-69
2022/05/23 04:42:51;;;;;;;6.25;2.78;;;;;;;13.82;68.20;100229.81;5086494;28;20020;-74
2022/05/23 04:45:17;;;;;;;5.70;3.28;;;;;;;13.79;66.92;100241.22;5085767;28;20055;-74
2022/05/23 04:50:27;;;;;;;4.03;2.88;;;;;;;13.02;67.19;100240.28;5086360;28;20031;-75
2022/05/23 04:52:54;;;;;;;7.53;3.17;;;;;;;12.72;67.78;100240.03;5086047;28;20020;-80
2022/05/23 04:55:20;;;;;;;3.90;2.80;;;;;;;12.39;68.45;100232.00;5085747;28;20020;-79
2022/05/23 04:57:46;;;;;;;6.32;3.58;;;;;;;12.20;69.21;100231.47;5068222;28;20490;-82
2022/05/23 05:00:14;;;;;;;7.63;4.20;;;;;;;12.03;70.15;100235.19;5085614;28;20028;-79
2022/05/23 05:02:40;;;;;;;5.28;3.00;;;;;;;12.01;70.70;100221.38;5085647;28;20020;-80
2022/05/23 05:05:07;;;;;;;4.60;3.08;;;;;;;12.32;71.11;100225.19;5085515;28;20066;-82
2022/05/23 05:07:33;;;;;;;5.85;3.33;;;;;;;12.94;71.32;100230.94;5085828;28;20032;-81
2022/05/23 05:09:58;;;;;;;4.95;3.28;;;;;;;13.86;68.61;100219.31;5085406;28;20342;-81
2022/05/23 05:12:24;;;;;;;4.97;2.67;;;;;;;14.42;65.64;100214.38;5067499;28;20037;-80
2022/05/23 05:14:49;;;;;;;4.53;2.42;;;;;;;14.95;64.80;100222.50;5085538;28;20069;-82
2022/05/23 05:17:14;;;;;;;4.65;2.45;;;;;;;15.55;62.89;100225.03;5085536;28;20032;-81
2022/05/23 05:19:40;;;;;;;5.63;2.35;;;;;;;15.91;62.14;100215.16;5085477;28;20076;-80
2022/05/23 05:22:05;;;;;;;3.65;1.77;;;;;;;16.27;58.69;100220.06;5085555;28;20036;-79
2022/05/23 05:24:34;;;;;;;4.47;2.60;;;;;;;16.38;57.50;100221.41;5067215;28;20339;-78
2022/05/23 05:27:00;;;;;;;2.97;2.00;;;;;;;16.41;57.74;100216.06;5085098;28;20162;-78
2022/05/23 05:29:26;;;;;;;3.53;1.85;;;;;;;16.78;56.69;100213.88;5066863;28;20090;-77
2022/05/23 05:32:18;;;;;;;4.03;2.20;;;;;;;16.93;55.95;100217.69;5067025;28;20025;-82
2022/05/23 05:35:18;;;;;;;4.63;2.13;;;;;;;17.32;54.96;100226.69;5084560;28;20084;-79
2022/05/23 05:37:49;;;;;;;4.78;1.65;;;;;;;17.85;54.22;100214.06;5076352;28;20051;-77
2022/05/23 05:40:17;;;;;;;6.22;1.95;;;;;;;18.08;52.47;100213.09;5084382;28;20044;-77
2022/05/23 05:42:48;;;;;;;5.10;2.15;;;;;;;17.86;51.45;100209.69;5084633;28;20376;-80
2022/05/23 05:45:26;;;;;;;3.75;1.90;;;;;;;17.38;52.11;100220.38;5066950;28;20024;-78
2022/05/23 05:47:52;;;;;;;3.20;2.03;;;;;;;16.68;53.56;100214.22;5084972;28;20021;-82
2022/05/23 05:50:23;;;;;;;4.85;1.88;;;;;;;16.29;54.33;100220.00;5085110;28;20031;-79
2022/05/23 05:52:49;;;;;;;3.13;1.95;;;;;;;15.96;55.00;100219.31;5085099;28;20024;-78
2022/05/23 05:55:14;;;;;;;5.25;2.20;;;;;;;15.65;55.92;100207.28;5084295;28;20103;-75
2022/05/23 05:57:41;;;;;;;5.40;1.95;;;;;;;15.43;56.25;100218.41;5084938;28;20023;-81
2022/05/23 06:00:07;;;;;;;5.20;2.65;;;;;;;15.25;56.89;100219.84;5084792;28;20024;-79
2022/05/23 06:02:33;;;;;;;4.32;2.30;;;;;;;15.07;57.74;100223.88;5084736;28;20024;-79
2022/05/23 06:04:58;;;;;;;7.80;2.45;;;;;;;14.82;58.53;100220.25;5084744;28;20093;-81
2022/05/23 06:12:56;;;;;;;6.28;1.90;;;;;;;14.78;59.35;100225.56;5084974;28;20106;-79
2022/05/23 06:15:22;;;;;;;2.78;1.80;;;;;;;14.93;58.96;100219.06;5084719;28;20468;-77
2022/05/23 06:17:48;;;;;;;5.07;2.38;;;;;;;15.16;58.54;100222.75;5084231;28;20032;-80
2022/05/23 06:20:14;;;;;;;3.63;2.13;;;;;;;15.53;57.32;100223.38;5084466;28;20020;-79
2022/05/23 06:22:39;;;;;;;3.75;2.05;;;;;;;15.93;55.79;100218.56;5066184;28;20021;-81
2022/05/23 06:25:07;;;;;;;3.08;1.85;;;;;;;16.10;54.59;100216.25;5084323;28;20319;-80
2022/05/23 06:27:32;;;;;;;3.58;2.03;;;;;;;16.32;54.74;100210.28;5066228;28;20020;-82
2022/05/23 06:29:58;;;;;;;6.47;2.30;;;;;;;16.75;54.40;100212.22;5066008;28;20028;-79
2022/05/23 06:32:24;;;;;;;3.72;1.70;;;;;;;17.44;52.44;100210.47;5084635;28;20021;-80
2022/05/23 06:34:50;;;;;;;10.52;2.03;;;;;;;17.71;50.82;100209.41;5084058;28;20020;-83
2022/05/23 06:37:15;;;;;;;4.82;1.80;;;;;;;17.82;51.24;100216.84;5084211;28;20016;-79
2022/05/23 06:39:41;;;;;;;6.47;2.70;;;;;;;18.15;51.30;100220.72;5083923;28;20047;-80
2022/05/23 06:42:06;;;;;;;4.22;1.70;;;;;;;18.77;51.19;100223.25;5084004;28;20017;-80
2022/05/23 06:44:32;;;;;;;4.90;1.60;;;;;;;19.41;46.76;100217.69;5065925;28;20088;-78
2022/05/23 06:46:58;;;;;;;6.70;1.65;;;;;;;19.50;46.34;100215.53;5083683;28;20033;-80
2022/05/23 06:49:24;;;;;;;6.47;1.65;;;;;;;19.43;45.30;100220.25;5083660;28;20024;-81
2022/05/23 06:51:51;;;;;;;4.28;1.20;;;;;;;19.26;44.86;100224.56;5065582;28;20048;-79
2022/05/23 06:54:19;;;;;;;4.95;1.50;;;;;;;19.02;45.19;100216.00;5083610;28;20040;-78
2022/05/23 06:56:45;;;;;;;4.60;1.83;;;;;;;18.61;46.21;100220.47;5083907;28;20028;-81
2022/05/23 06:59:11;;;;;;;5.00;1.40;;;;;;;18.75;46.13;100225.13;5084495;28;20021;-79
2022/05/23 07:01:36;;;;;;;3.80;1.38;;;;;;;18.65;45.79;100227.31;5084673;28;20361;-81
2022/05/23 07:04:02;;;;;;;7.00;1.77;;;;;;;18.70;46.08;100221.84;5066425;28;20024;-82
2022/05/23 07:12:19;;;;;;;5.10;1.55;;;;;;;18.86;45.79;100210.63;5083610;28;20085;-83
2022/05/23 07:12:20;;;;;;;1.98;1.40;;;;;;;19.08;45.21;100216.59;5083423;28;20033;-77
2022/05/23 07:14:47;;;;;;;2.80;0.77;;;;;;;18.83;44.34;100214.25;5083406;28;20021;-77
2022/05/23 07:17:13;;;;;;;3.95;1.27;;;;;;;18.45;44.82;100209.81;5083715;28;20100;-81
2022/05/23 07:19:42;;;;;;;2.72;1.13;;;;;;;17.95;46.12;100219.81;5083495;28;20597;-78
2022/05/23 07:22:08;;;;;;;2.92;1.00;;;;;;;17.64;46.38;100210.56;5084041;28;20031;-80
2022/05/23 07:24:33;;;;;;;2.40;1.23;;;;;;;17.46;47.45;100224.38;5083188;28;20359;-79
2022/05/23 07:27:00;;;;;;;2.80;1.50;;;;;;;17.37;47.48;100213.41;5082995;28;20125;-80
2022/05/23 07:29:26;;;;;;;2.08;1.20;;;;;;;17.35;48.11;100213.47;5065674;28;20028;-81
2022/05/23 07:31:52;;;;;;;2.05;1.25;;;;;;;17.58;47.34;100203.81;5083599;28;20029;-79
2022/05/23 07:34:18;;;;;;;2.42;1.17;;;;;;;17.65;47.50;100199.16;5082997;28;20063;-79
2022/05/23 07:36:44;;;;;;;4.22;1.98;;;;;;;17.76;47.57;100191.69;5083056;28;20092;-82
2022/05/23 07:39:11;;;;;;;6.10;1.58;;;;;;;18.51;47.94;100195.53;5064964;28;20023;-82
2022/05/23 07:41:38;;;;;;;3.65;1.50;;;;;;;19.30;44.87;100186.63;5064663;28;20049;-79
2022/05/23 07:44:09;;;;;;;2.67;1.27;;;;;;;19.30;44.16;100185.78;5065152;28;20025;-80
2022/05/23 07:46:35;;;;;;;4.43;1.50;;;;;;;19.35;44.57;100180.28;5082955;28;20043;-81
2022/05/23 07:49:00;;;;;;;4.10;1.90;;;;;;;19.82;43.95;100181.47;5082945;28;20029;-80
2022/05/23 07:51:29;;;;;;;3.10;1.45;;;;;;;20.18;42.35;100190.22;5082925;28;20384;-82
2022/05/23 08:02:09;;;;;;;8.32;1.80;;;;;;;20.61;42.94;100181.78;5083098;28;20035;-81
2022/05/23 08:04:34;;;;;;;2.83;1.42;;;;;;;21.25;40.69;100169.53;5064507;28;20100;-80
2022/05/23 08:07:00;;;;;;;3.25;1.48;;;;;;;21.59;40.82;100177.28;5083337;28;20029;-80
2022/05/23 08:09:25;;;;;;;7.70;2.35;;;;;;;21.61;39.88;100178.06;5082943;28;20028;-80
2022/05/23 08:11:54;;;;;;;5.57;1.23;;;;;;;21.68;40.64;100168.81;5082821;28;20021;-83
2022/05/23 08:14:20;;;;;;;4.20;1.33;;;;;;;22.05;39.39;100157.88;5083230;28;20082;-82
2022/05/23 08:16:47;;;;;;;3.95;1.80;;;;;;;22.56;38.20;100166.28;5083198;28;20052;-82
2022/05/23 08:19:12;;;;;;;4.18;1.67;;;;;;;22.63;38.25;100162.31;5083278;28;20032;-83
2022/05/23 08:21:49;;;;;;;2.80;1.17;;;;;;;22.63;38.64;100171.09;5083188;28;20024;-82
2022/05/23 08:24:14;;;;;;;2.97;1.35;;;;;;;22.70;36.31;100152.19;5064931;28;20025;-76
2022/05/23 08:26:40;;;;;;;7.20;1.73;;;;;;;21.81;38.49;100157.56;5082256;28;20082;-84
2022/05/23 08:29:06;;;;;;;3.47;1.85;;;;;;;22.06;37.87;100145.50;5064402;28;20029;-84
2022/05/23 08:31:31;;;;;;;5.75;1.60;;;;;;;22.04;38.50;100151.72;5082637;28;20031;-75
2022/05/23 08:33:57;;;;;;;4.35;1.70;;;;;;;22.24;36.95;100135.59;5082325;28;20107;-75
2022/05/23 08:36:22;;;;;;;4.97;1.20;;;;;;;22.05;36.11;100136.72;5083047;28;20027;-82
2022/05/23 08:38:47;;;;;;;5.28;1.95;;;;;;;21.62;36.71;100134.84;5082527;28;20376;-77
2022/05/23 08:41:16;;;;;;;4.07;1.17;;;;;;;21.47;37.22;100147.19;5081782;28;20116;-78
2022/05/23 08:43:56;;;;;;;2.92;0.95;;;;;;;21.46;38.40;100146.31;5064328;28;20031;-76
2022/05/23 08:46:30;;;;;;;2.35;1.10;;;;;;;21.72;37.05;100136.03;5082448;28;20115;-75
2022/05/23 08:49:01;;;;;;;3.97;1.00;;;;;;;20.99;37.32;100133.13;5082499;28;20044;-75
2022/05/23 08:51:40;;;;;;;8.13;1.30;;;;;;;20.05;38.76;100138.16;5082492;28;20035;-80
2022/05/23 08:54:06;;;;;;;3.72;1.27;;;;;;;19.75;40.56;100141.44;5082685;28;20025;-81
2022/05/23 08:56:37;;;;;;;4.45;1.20;;;;;;;19.75;40.00;100144.06;5082287;28;20029;-82
2022/05/23 08:59:15;;;;;;;3.00;1.25;;;;;;;19.72;40.10;100140.72;5082600;28;20044;-82
2022/05/23 09:01:55;;;;;;;2.40;0.95;;;;;;;20.36;39.17;100134.81;5082706;28;20039;-79
2022/05/23 09:04:59;;;;;;;3.63;1.08;;;;;;;20.84;38.05;100133.97;5082614;28;20035;-77
2022/05/23 09:07:40;;;;;;;4.00;1.20;;;;;;;20.87;38.37;100125.88;5020455;28;20097;-80
2022/05/23 09:10:27;;;;;;;3.78;1.17;;;;;;;21.27;38.07;100113.09;5021866;28;20089;-82
2022/05/23 09:12:53;;;;;;;3.30;1.10;;;;;;;21.37;37.58;100117.81;5023979;28;20034;-79
2022/05/23 09:15:20;;;;;;;3.70;1.45;;;;;;;21.65;36.46;100118.81;5007047;28;20038;-80
2022/05/23 09:17:58;;;;;;;4.00;1.60;;;;;;;21.33;37.25;100105.72;5023253;28;20030;-79
2022/05/23 09:20:44;;;;;;;4.88;0.93;;;;;;;21.76;36.59;100111.09;5023863;28;20033;-74
2022/05/23 09:23:28;;;;;;;3.25;1.17;;;;;;;21.15;36.79;100116.44;5023272;28;20283;-79
2022/05/23 09:25:55;;;;;;;4.57;1.20;;;;;;;20.75;36.77;100115.09;5022864;28;20029;-79
2022/05/23 09:28:30;;;;;;;7.03;1.27;;;;;;;20.72;38.52;100117.91;5023079;28;20038;-80
2022/05/23 09:31:03;;;;;;;3.60;1.05;;;;;;;20.98;37.68;100112.13;5023383;28;20489;-80
2022/05/23 09:33:30;;;;;;;3.63;1.40;;;;;;;20.75;38.28;100115.09;5023315;28;20041;-81
2022/05/23 09:36:20;;;;;;;3.90;1.40;;;;;;;20.46;38.11;100117.56;5022701;28;20037;-80
2022/05/23 09:38:58;;;;;;;3.95;1.45;;;;;;;20.12;38.65;100111.47;5023005;28;20048;-82
2022/05/23 09:47:44;;;;;;;3.67;1.90;;;;;;;19.88;39.41;100103.91;5053718;28;20044;-81
2022/05/23 09:49:46;;;;;;;3.58;1.10;;;;;;;19.66;41.55;100087.47;5085265;28;20039;-80
2022/05/23 09:52:29;;;;;;;7.28;1.30;;;;;;;19.73;40.92;100101.16;5085353;28;20024;-81
2022/05/23 09:55:00;;;;;;;5.60;1.63;;;;;;;19.63;40.26;100092.03;5085134;28;20507;-79
2022/05/23 09:57:34;;;;;;;5.53;1.50;;;;;;;19.42;40.68;100086.94;5066818;28;20042;-82
2022/05/23 10:00:00;;;;;;;3.00;1.50;;;;;;;19.80;41.65;100089.38;5085268;28;20062;-81
2022/05/23 10:02:36;;;;;;;3.78;1.33;;;;;;;21.00;40.53;100082.09;5085162;28;20054;-80
2022/05/23 10:05:04;;;;;;;3.88;1.00;;;;;;;21.87;38.71;100080.59;5085316;28;20066;-80
2022/05/23 10:07:32;;;;;;;5.75;1.20;;;;;;;22.95;36.19;100084.44;5085483;28;20437;-81
2022/05/23 10:10:05;;;;;;;6.38;1.40;;;;;;;23.32;35.43;100081.13;5067085;28;20032;-80
2022/05/23 10:12:32;;;;;;;5.90;1.70;;;;;;;22.69;36.37;100082.53;5084557;28;20028;-80
2022/05/23 10:15:06;;;;;;;5.55;1.50;;;;;;;22.04;36.83;100061.84;5084744;28;20025;-82
2022/05/23 10:17:37;;;;;;;3.05;1.25;;;;;;;21.64;37.91;100069.59;5084732;28;20447;-82
2022/05/23 10:20:26;;;;;;;3.77;1.03;;;;;;;21.26;39.09;100076.22;5084800;28;20030;-82
2022/05/23 10:23:04;;;;;;;6.32;1.33;;;;;;;20.96;40.38;100071.78;5084170;28;20284;-83
2022/05/23 10:25:44;;;;;;;3.58;1.27;;;;;;;21.82;40.19;100077.38;5066040;28;20027;-81
2022/05/23 10:28:17;;;;;;;5.18;1.52;;;;;;;21.96;38.67;100079.16;5084487;28;20099;-82
2022/05/23 10:30:59;;;;;;;3.38;1.50;;;;;;;21.46;39.02;100067.09;5084445;28;20440;-81
2022/05/23 10:33:27;;;;;;;;;;;;;;;21.44;39.38;100063.69;5085076;28;20028;-81
2022/05/23 10:36:14;;;;;;;6.70;1.35;;;;;;;20.86;40.10;100059.09;5084434;28;19919;-82
2022/05/23 10:42:10;;;;;;;5.43;1.58;;;;;;;19.35;43.16;100060.06;5083980;28;20055;-82
2022/05/23 10:44:48;;;;;;;4.50;1.40;;;;;;;18.95;44.39;100057.63;5084007;28;20479;-79
2022/05/23 10:47:28;;;;;;;5.38;1.50;;;;;;;18.65;45.29;100060.81;5084161;28;20048;-82
2022/05/23 10:50:02;;;;;;;6.38;1.65;;;;;;;18.53;45.76;100068.38;5084074;28;20031;-82
2022/05/23 10:53:11;;;;;;;4.15;1.52;;;;;;;18.61;45.88;100059.28;5084066;28;20031;-81
2022/05/23 10:55:37;;;;;;;3.10;1.30;;;;;;;18.74;45.35;100070.88;5065479;28;20028;-80
2022/05/23 10:58:15;;;;;;;3.90;1.23;;;;;;;18.73;45.19;100063.06;5085433;28;20036;-80
2022/05/23 11:00:54;;;;;;;4.72;1.27;;;;;;;18.82;45.59;100066.13;5067654;28;20017;-82
2022/05/23 11:03:36;;;;;;;5.57;1.50;;;;;;;19.05;44.81;100061.50;5083945;28;20024;-82
2022/05/23 11:06:29;;;;;;;3.72;1.20;;;;;;;19.14;43.73;100046.22;5083909;28;20240;-81
2022/05/23 11:09:31;;;;;;;5.70;1.42;;;;;;;19.05;43.44;100047.50;5083898;28;20020;-83
2022/05/23 11:12:02;;;;;;;;;;;;;;;19.06;44.12;100042.16;5058533;28;20038;-81
2022/05/23 11:15:12;;;;;;;2.85;1.00;;;;;;;19.28;44.44;100033.22;5083567;28;19912;-80
2022/05/23 11:17:48;;;;;;;5.97;1.35;;;;;;;19.55;43.86;100022.19;5001324;28;20117;-82
2022/05/23 11:20:26;;;;;;;4.95;1.60;;;;;;;19.76;43.01;100032.50;5001473;28;20114;-81
2022/05/23 11:23:29;;;;;;;4.03;1.40;;;;;;;19.85;42.45;100031.19;5001416;28;20034;-82
2022/05/23 11:26:03;;;;;;;6.93;1.23;;;;;;;19.61;41.45;100007.00;5000966;28;20042;-82
2022/05/23 11:34:24;;;;;;;6.63;1.50;;;;;;;19.70;41.59;100011.78;5000295;28;20061;-80
2022/05/23 11:37:08;;;;;;;3.60;1.13;;;;;;;19.73;41.63;100014.25;5000920;28;20442;-81
2022/05/23 11:39:51;;;;;;;4.03;1.15;;;;;;;19.74;40.87;100007.19;5001190;28;20022;-80
2022/05/23 11:42:27;;;;;;;3.65;0.90;;;;;;;19.46;39.89;99998.97;5001489;28;20058;-81
2022/05/23 11:48:01;;;;;;;3.85;1.23;;;;;;;18.95;40.79;100005.88;5001060;28;20414;-81
2022/05/23 11:50:31;;;;;;;5.68;1.38;;;;;;;18.86;41.16;100003.72;5001002;28;20082;-81
2022/05/23 11:53:19;;;;;;;4.93;1.50;;;;;;;18.98;41.65;100007.50;5001140;28;20036;-81
2022/05/23 11:55:50;;;;;;;3.35;0.85;;;;;;;18.99;40.96;99995.19;5082842;28;20020;-81
2022/05/23 11:58:42;;;;;;;4.00;1.08;;;;;;;19.00;40.89;99991.63;5083264;28;20020;-80
2022/05/23 12:01:10;;;;;;;;;;;;;;;18.96;40.73;99985.69;5083619;28;20035;-80
2022/05/23 12:03:49;;;;;;;4.10;1.10;;;;;;;18.90;41.09;99981.56;5082993;28;19975;-80
2022/05/23 12:06:29;;;;;;;3.15;1.00;;;;;;;18.97;40.91;99982.13;5082967;28;20023;-80
2022/05/23 12:08:57;;;;;;;3.80;0.93;;;;;;;19.00;40.86;99986.38;5082906;28;20033;-81
2022/05/23 12:11:23;;;;;;;3.58;1.10;;;;;;;18.94;40.48;99977.88;5082985;28;20028;-80
2022/05/23 12:13:51;;;;;;;2.20;0.90;;;;;;;18.93;40.73;99978.78;5083213;28;20049;-81
2022/05/23 12:16:27;;;;;;;6.93;1.27;;;;;;;18.94;40.67;99971.75;5082875;28;20260;-80
2022/05/23 12:19:11;;;;;;;6.95;1.17;;;;;;;18.91;39.95;99979.81;5082951;28;20068;-80
2022/05/23 12:21:36;;;;;;;3.33;1.10;;;;;;;18.82;40.81;99967.97;5083486;28;20054;-81
2022/05/23 12:24:23;;;;;;;2.65;0.90;;;;;;;18.98;41.26;99960.16;5064924;28;20045;-81
2022/05/23 12:26:52;;;;;;;5.22;1.35;;;;;;;19.15;41.03;99959.31;5082432;28;20149;-81
2022/05/23 12:29:24;;;;;;;4.03;1.05;;;;;;;19.31;40.50;99958.53;5082880;28;20020;-81
2022/05/23 12:32:04;;;;;;;4.25;1.02;;;;;;;19.26;39.72;99965.81;5083110;28;20020;-82
2022/05/23 12:34:31;;;;;;;5.15;1.30;;;;;;;19.08;40.05;99953.50;5066286;28;20058;-80
2022/05/23 12:36:57;;;;;;;3.42;0.98;;;;;;;19.07;40.18;99954.41;5084651;28;20029;-83